Le Suroit — FZVN — position and weather

sailwx.info

Track history (hours):
 
Tides and Currents Weather Stations Pressure Air Temp Water Temp Dewpoint Dewpoint Depression Visibility Wind Speed Wind Dir Waves Ship Positions

Oceanographic research ship Le Suroit (France)

Detailed information on ship capabilities available from University of Delaware's Ocean Information Center.

Last reported at 2015-Mar-28 18:31 UTC. Time now 2015-Mar-28 18:57 UTC.
Position N 43°06' E 005°53'.

Length 57 m; beam 11 m.

MMSI: 227223000.

Date/timePositionNaut miles runAvg speedWind from/ knotsBaromVisibWave heightAir tempDewpointWater temp
2015-Mar-28 18:31N 43°06' E 005°53'0 0.0
2015-Mar-28 17:33N 43°06' E 005°53'0 0.0
2015-Mar-28 16:33N 43°06' E 005°53'0 0.0
2015-Mar-28 15:30N 43°06' E 005°53'0 0.0
2015-Mar-28 14:32N 43°06' E 005°53'0 0.0
2015-Mar-28 13:32N 43°06' E 005°53'0 0.0
2015-Mar-28 12:31N 43°06' E 005°53'0 0.0
2015-Mar-28 11:31N 43°06' E 005°53'0 0.0
2015-Mar-28 10:33N 43°06' E 005°53'0 0.0
2015-Mar-28 09:33N 43°06' E 005°53'0 0.0
2015-Mar-28 08:32N 43°06' E 005°53'0 0.0
2015-Mar-28 07:32N 43°06' E 005°53'0 0.0
2015-Mar-28 06:32N 43°06' E 005°53'0 0.0
2015-Mar-28 05:31N 43°06' E 005°53'0 0.0
2015-Mar-28 04:31N 43°06' E 005°53'0 0.0
2015-Mar-28 03:33N 43°06' E 005°53'0 0.0
2015-Mar-28 02:33N 43°06' E 005°53'0 0.0
2015-Mar-28 01:32N 43°06' E 005°53'0 0.0
2015-Mar-28 00:32N 43°06' E 005°53'0 0.0
2015-Mar-27 23:31N 43°06' E 005°53'0 0.0
2015-Mar-27 22:31N 43°06' E 005°53'0 0.0
2015-Mar-27 21:31N 43°06' E 005°53'0 0.0
2015-Mar-27 20:33N 43°06' E 005°53'0 0.0
2015-Mar-27 19:33N 43°06' E 005°53'0 0.0
2015-Mar-27 18:32N 43°06' E 005°53'0 0.0
2015-Mar-27 17:33N 43°06' E 005°53'0 0.0
2015-Mar-27 16:31N 43°06' E 005°53'0 0.0
2015-Mar-27 15:31N 43°06' E 005°53'0 0.0
2015-Mar-27 14:31N 43°06' E 005°53'0 0.0
2015-Mar-27 13:33N 43°06' E 005°53'0 0.0
2015-Mar-27 12:33N 43°06' E 005°53'0 0.0
2015-Mar-27 11:32N 43°06' E 005°53'0 0.0
2015-Mar-27 10:32N 43°06' E 005°53'0 0.0
2015-Mar-27 09:31N 43°06' E 005°53'0 0.0
2015-Mar-27 08:31N 43°06' E 005°53'0 0.0
2015-Mar-27 07:31N 43°06' E 005°53'0 0.0
2015-Mar-27 06:33N 43°06' E 005°53'0 0.0
2015-Mar-27 05:33N 43°06' E 005°53'0 0.0
2015-Mar-27 04:33N 43°06' E 005°53'0 0.0
2015-Mar-27 03:32N 43°06' E 005°53'0 0.0
2015-Mar-27 02:31N 43°06' E 005°53'0 0.0
2015-Mar-27 01:31N 43°06' E 005°53'0 0.0
2015-Mar-27 00:31N 43°06' E 005°53'0 0.0
2015-Mar-26 23:33N 43°06' E 005°53'0 0.0
2015-Mar-26 22:33N 43°06' E 005°53'0 0.0
2015-Mar-26 21:33N 43°06' E 005°53'0 0.0
2015-Mar-26 20:32N 43°06' E 005°53'0 0.0
2015-Mar-26 19:31N 43°06' E 005°53'0 0.0
2015-Mar-26 18:31N 43°06' E 005°53'0 0.0
2015-Mar-26 17:33N 43°06' E 005°53'5 4.5
2015-Mar-26 16:33N 43°05' E 005°59'27 8.2
2015-Mar-26 13:13N 43°07' E 006°36'711.4
2015-Mar-26 12:33N 43°10' E 006°45'1 1.1
2015-Mar-26 11:33N 43°11' E 006°45'0 0.0
2015-Mar-26 10:33N 43°11' E 006°45'0 0.4
2015-Mar-26 09:33N 43°11' E 006°45'1 0.6
2015-Mar-26 08:33N 43°10' E 006°45'0 0.2
2015-Mar-26 07:33N 43°10' E 006°45'0 0.0
2015-Mar-26 06:33N 43°10' E 006°45'1 0.5
2015-Mar-26 05:33N 43°10' E 006°45'3 3.5
2015-Mar-26 04:33N 43°08' E 006°41'4 4.0
2015-Mar-26 03:33N 43°07' E 006°36'2 1.4
2015-Mar-26 02:13N 43°07' E 006°33'0 0.7
2015-Mar-26 01:33N 43°07' E 006°34'2 2.2
2015-Mar-26 00:33N 43°07' E 006°37'2 1.8
2015-Mar-25 23:33N 43°07' E 006°39'2 1.6
2015-Mar-25 22:33N 43°07' E 006°41'2 1.6
2015-Mar-25 21:33N 43°08' E 006°44'2 2.2
2015-Mar-25 20:33N 43°08' E 006°46'2 2.3
2015-Mar-25 19:33N 43°09' E 006°49'2 2.2
2015-Mar-25 18:33N 43°10' E 006°52'2 2.1
2015-Mar-25 17:33N 43°10' E 006°55'3 2.5
2015-Mar-25 16:33N 43°11' E 006°58'2 2.3
2015-Mar-25 15:33N 43°12' E 007°01'1 1.2
2015-Mar-25 14:33N 43°11' E 007°00'0 0.3
2015-Mar-25 13:33N 43°11' E 006°60'1 0.6
2015-Mar-25 12:33N 43°11' E 006°59'0 0.4
2015-Mar-25 11:33N 43°10' E 006°59'1 0.6
2015-Mar-25 10:33N 43°10' E 006°59'0 0.4
2015-Mar-25 09:33N 43°09' E 006°59'0 0.2
2015-Mar-25 08:33N 43°09' E 006°60'0 0.4
2015-Mar-25 07:33N 43°09' E 006°60'1 1.3
2015-Mar-25 06:33N 43°10' E 006°59'2 1.7
2015-Mar-25 05:33N 43°09' E 006°57'5 5.1
2015-Mar-25 04:33N 43°09' E 006°50'6 5.8
2015-Mar-25 03:33N 43°07' E 006°42'4 3.9
2015-Mar-25 02:33N 43°07' E 006°37'1 0.8
2015-Mar-25 01:33N 43°07' E 006°38'1 1.4
2015-Mar-25 00:33N 43°06' E 006°36'1 1.3
2015-Mar-24 23:33N 43°06' E 006°34'2 1.0
2015-Mar-24 21:30N 43°06' E 006°31'3 3.1
2015-Mar-24 20:33N 43°06' E 006°35'2 2.0
2015-Mar-24 19:33N 43°06' E 006°38'1 1.2
2015-Mar-24 18:33N 43°06' E 006°36'3 1.1
2015-Mar-24 15:19N 43°06' E 006°32'1 1.6
2015-Mar-24 14:33N 43°06' E 006°33'4 3.9
2015-Mar-24 13:33N 43°06' E 006°38'3 2.5
2015-Mar-24 12:32N 43°06' E 006°35'3 2.4
2015-Mar-24 11:22N 43°06' E 006°31'3 3.4
2015-Mar-24 10:34N 43°06' E 006°35'2 2.0
2015-Mar-24 09:33N 43°07' E 006°38'1 1.1
2015-Mar-24 08:33N 43°07' E 006°36'1 1.2
2015-Mar-24 07:30N 43°07' E 006°34'1 1.2
2015-Mar-24 06:26N 43°06' E 006°33'1 0.8
2015-Mar-24 05:08N 43°06' E 006°31'1 1.1
2015-Mar-24 04:32N 43°06' E 006°32'1 1.0
2015-Mar-24 03:32N 43°07' E 006°34'1 1.0
2015-Mar-24 02:33N 43°06' E 006°35'1 1.2
2015-Mar-24 01:21N 43°06' E 006°37'0 0.3
2015-Mar-24 00:33N 43°07' E 006°37'1 1.2
2015-Mar-23 23:33N 43°07' E 006°36'1 1.4
2015-Mar-23 22:33N 43°07' E 006°34'1 1.4
2015-Mar-23 21:33N 43°07' E 006°32'3 0.7
2015-Mar-23 17:15N 43°06' E 006°28'1 0.5
2015-Mar-23 15:24N 43°05' E 006°27'1 0.3
2015-Mar-23 10:32N 43°05' E 006°29'1 0.4
2015-Mar-23 08:31N 43°05' E 006°28'5 4.8
2015-Mar-23 07:34N 43°06' E 006°34'0 0.3
2015-Mar-23 06:34N 43°06' E 006°34'2 1.4
2015-Mar-23 05:24N 43°07' E 006°33'1 0.7
2015-Mar-23 04:33N 43°07' E 006°32'1 1.4
2015-Mar-23 03:31N 43°06' E 006°34'1 1.5
2015-Mar-23 02:34N 43°06' E 006°36'2 1.6
2015-Mar-23 01:34N 43°06' E 006°38'1 0.8
2015-Mar-23 00:33N 43°06' E 006°37'1 0.7
2015-Mar-22 23:22N 43°06' E 006°36'1 0.9
2015-Mar-22 22:34N 43°06' E 006°35'1 1.3
2015-Mar-22 21:26N 43°07' E 006°33'1 1.0
2015-Mar-22 20:29N 43°07' E 006°32'3 2.1
2015-Mar-22 19:03N 43°08' E 006°35'1 2.3
2015-Mar-22 18:33N 43°08' E 006°37'1 0.8
2015-Mar-22 17:31N 43°08' E 006°38'1 1.0
2015-Mar-22 16:05N 43°09' E 006°36'1 0.6
2015-Mar-22 15:06N 43°09' E 006°35'0 0.5
2015-Mar-22 14:24N 43°09' E 006°35'2 1.3
2015-Mar-22 13:10N 43°08' E 006°33'1 1.2
2015-Mar-22 12:30N 43°08' E 006°32'1 1.3
2015-Mar-22 11:29N 43°07' E 006°31'0 0.2
2015-Mar-22 10:27N 43°07' E 006°31'0 0.4
2015-Mar-22 09:29N 43°07' E 006°31'0 0.4
2015-Mar-22 08:33N 43°07' E 006°31'46 1.2
2015-Mar-20 17:18N 43°01' E 005°28'10 0.5
2015-Mar-19 21:09N 43°07' E 005°39'2 1.7
2015-Mar-19 20:06N 43°07' E 005°37'1 1.5
2015-Mar-19 19:28N 43°07' E 005°35'2 1.8
2015-Mar-19 18:12N 43°08' E 005°38'1 1.8
2015-Mar-19 17:31N 43°09' E 005°39'12 2.8
2015-Mar-19 13:18N 43°00' E 005°29'0 0.0
2015-Mar-19 12:28N 43°00' E 005°29'0 0.1
2015-Mar-19 11:12N 43°00' E 005°29'0 0.1
2015-Mar-19 10:13N 43°00' E 005°29'0 0.4
2015-Mar-19 09:11N 43°00' E 005°28'0 0.3
2015-Mar-19 08:33N 43°00' E 005°28'0 0.2
2015-Mar-19 07:33N 43°00' E 005°28'1 0.2
2015-Mar-19 02:31N 43°00' E 005°27'1 0.6
2015-Mar-19 01:29N 43°01' E 005°28'0 0.4
2015-Mar-19 00:26N 43°01' E 005°29'0 0.4
2015-Mar-18 23:28N 43°00' E 005°29'1 1.4
2015-Mar-18 22:33N 42°59' E 005°30'1 0.6
2015-Mar-18 21:31N 42°58' E 005°30'1 0.6
2015-Mar-18 20:33N 42°59' E 005°30'1 0.5
2015-Mar-18 19:31N 42°59' E 005°29'  
Track history (hours):
 
Tides and Currents Weather Stations Pressure Air Temp Water Temp Dewpoint Dewpoint Depression Visibility Wind Speed Wind Dir Waves Ship Positions

Oceanographic research ship Le Suroit (France)

Detailed information on ship capabilities available from University of Delaware's Ocean Information Center.

Last reported at 2015-Mar-28 18:31 UTC. Time now 2015-Mar-28 18:57 UTC.
Position N 43°06' E 005°53'.

Length 57 m; beam 11 m.

MMSI: 227223000.

Date/timePositionNaut miles runAvg speedWind from/ knotsBaromVisibWave heightAir tempDewpointWater temp
2015-Mar-28 18:31N 43°06' E 005°53'0 0.0
2015-Mar-28 17:33N 43°06' E 005°53'0 0.0
2015-Mar-28 16:33N 43°06' E 005°53'0 0.0
2015-Mar-28 15:30N 43°06' E 005°53'0 0.0
2015-Mar-28 14:32N 43°06' E 005°53'0 0.0
2015-Mar-28 13:32N 43°06' E 005°53'0 0.0
2015-Mar-28 12:31N 43°06' E 005°53'0 0.0
2015-Mar-28 11:31N 43°06' E 005°53'0 0.0
2015-Mar-28 10:33N 43°06' E 005°53'0 0.0
2015-Mar-28 09:33N 43°06' E 005°53'0 0.0
2015-Mar-28 08:32N 43°06' E 005°53'0 0.0
2015-Mar-28 07:32N 43°06' E 005°53'0 0.0
2015-Mar-28 06:32N 43°06' E 005°53'0 0.0
2015-Mar-28 05:31N 43°06' E 005°53'0 0.0
2015-Mar-28 04:31N 43°06' E 005°53'0 0.0
2015-Mar-28 03:33N 43°06' E 005°53'0 0.0
2015-Mar-28 02:33N 43°06' E 005°53'0 0.0
2015-Mar-28 01:32N 43°06' E 005°53'0 0.0
2015-Mar-28 00:32N 43°06' E 005°53'0 0.0
2015-Mar-27 23:31N 43°06' E 005°53'0 0.0
2015-Mar-27 22:31N 43°06' E 005°53'0 0.0
2015-Mar-27 21:31N 43°06' E 005°53'0 0.0
2015-Mar-27 20:33N 43°06' E 005°53'0 0.0
2015-Mar-27 19:33N 43°06' E 005°53'0 0.0
2015-Mar-27 18:32N 43°06' E 005°53'0 0.0
2015-Mar-27 17:33N 43°06' E 005°53'0 0.0
2015-Mar-27 16:31N 43°06' E 005°53'0 0.0
2015-Mar-27 15:31N 43°06' E 005°53'0 0.0
2015-Mar-27 14:31N 43°06' E 005°53'0 0.0
2015-Mar-27 13:33N 43°06' E 005°53'0 0.0
2015-Mar-27 12:33N 43°06' E 005°53'0 0.0
2015-Mar-27 11:32N 43°06' E 005°53'0 0.0
2015-Mar-27 10:32N 43°06' E 005°53'0 0.0
2015-Mar-27 09:31N 43°06' E 005°53'0 0.0
2015-Mar-27 08:31N 43°06' E 005°53'0 0.0
2015-Mar-27 07:31N 43°06' E 005°53'0 0.0
2015-Mar-27 06:33N 43°06' E 005°53'0 0.0
2015-Mar-27 05:33N 43°06' E 005°53'0 0.0
2015-Mar-27 04:33N 43°06' E 005°53'0 0.0
2015-Mar-27 03:32N 43°06' E 005°53'0 0.0
2015-Mar-27 02:31N 43°06' E 005°53'0 0.0
2015-Mar-27 01:31N 43°06' E 005°53'0 0.0
2015-Mar-27 00:31N 43°06' E 005°53'0 0.0
2015-Mar-26 23:33N 43°06' E 005°53'0 0.0
2015-Mar-26 22:33N 43°06' E 005°53'0 0.0
2015-Mar-26 21:33N 43°06' E 005°53'0 0.0
2015-Mar-26 20:32N 43°06' E 005°53'0 0.0
2015-Mar-26 19:31N 43°06' E 005°53'0 0.0
2015-Mar-26 18:31N 43°06' E 005°53'0 0.0
2015-Mar-26 17:33N 43°06' E 005°53'5 4.5
2015-Mar-26 16:33N 43°05' E 005°59'27 8.2
2015-Mar-26 13:13N 43°07' E 006°36'711.4
2015-Mar-26 12:33N 43°10' E 006°45'1 1.1
2015-Mar-26 11:33N 43°11' E 006°45'0 0.0
2015-Mar-26 10:33N 43°11' E 006°45'0 0.4
2015-Mar-26 09:33N 43°11' E 006°45'1 0.6
2015-Mar-26 08:33N 43°10' E 006°45'0 0.2
2015-Mar-26 07:33N 43°10' E 006°45'0 0.0
2015-Mar-26 06:33N 43°10' E 006°45'1 0.5
2015-Mar-26 05:33N 43°10' E 006°45'3 3.5
2015-Mar-26 04:33N 43°08' E 006°41'4 4.0
2015-Mar-26 03:33N 43°07' E 006°36'2 1.4
2015-Mar-26 02:13N 43°07' E 006°33'0 0.7
2015-Mar-26 01:33N 43°07' E 006°34'2 2.2
2015-Mar-26 00:33N 43°07' E 006°37'2 1.8
2015-Mar-25 23:33N 43°07' E 006°39'2 1.6
2015-Mar-25 22:33N 43°07' E 006°41'2 1.6
2015-Mar-25 21:33N 43°08' E 006°44'2 2.2
2015-Mar-25 20:33N 43°08' E 006°46'2 2.3
2015-Mar-25 19:33N 43°09' E 006°49'2 2.2
2015-Mar-25 18:33N 43°10' E 006°52'2 2.1
2015-Mar-25 17:33N 43°10' E 006°55'3 2.5
2015-Mar-25 16:33N 43°11' E 006°58'2 2.3
2015-Mar-25 15:33N 43°12' E 007°01'1 1.2
2015-Mar-25 14:33N 43°11' E 007°00'0 0.3
2015-Mar-25 13:33N 43°11' E 006°60'1 0.6
2015-Mar-25 12:33N 43°11' E 006°59'0 0.4
2015-Mar-25 11:33N 43°10' E 006°59'1 0.6
2015-Mar-25 10:33N 43°10' E 006°59'0 0.4
2015-Mar-25 09:33N 43°09' E 006°59'0 0.2
2015-Mar-25 08:33N 43°09' E 006°60'0 0.4
2015-Mar-25 07:33N 43°09' E 006°60'1 1.3
2015-Mar-25 06:33N 43°10' E 006°59'2 1.7
2015-Mar-25 05:33N 43°09' E 006°57'5 5.1
2015-Mar-25 04:33N 43°09' E 006°50'6 5.8
2015-Mar-25 03:33N 43°07' E 006°42'4 3.9
2015-Mar-25 02:33N 43°07' E 006°37'1 0.8
2015-Mar-25 01:33N 43°07' E 006°38'1 1.4
2015-Mar-25 00:33N 43°06' E 006°36'1 1.3
2015-Mar-24 23:33N 43°06' E 006°34'2 1.0
2015-Mar-24 21:30N 43°06' E 006°31'3 3.1
2015-Mar-24 20:33N 43°06' E 006°35'2 2.0
2015-Mar-24 19:33N 43°06' E 006°38'1 1.2
2015-Mar-24 18:33N 43°06' E 006°36'3 1.1
2015-Mar-24 15:19N 43°06' E 006°32'1 1.6
2015-Mar-24 14:33N 43°06' E 006°33'4 3.9
2015-Mar-24 13:33N 43°06' E 006°38'3 2.5
2015-Mar-24 12:32N 43°06' E 006°35'3 2.4
2015-Mar-24 11:22N 43°06' E 006°31'3 3.4
2015-Mar-24 10:34N 43°06' E 006°35'2 2.0
2015-Mar-24 09:33N 43°07' E 006°38'1 1.1
2015-Mar-24 08:33N 43°07' E 006°36'1 1.2
2015-Mar-24 07:30N 43°07' E 006°34'1 1.2
2015-Mar-24 06:26N 43°06' E 006°33'1 0.8
2015-Mar-24 05:08N 43°06' E 006°31'1 1.1
2015-Mar-24 04:32N 43°06' E 006°32'1 1.0
2015-Mar-24 03:32N 43°07' E 006°34'1 1.0
2015-Mar-24 02:33N 43°06' E 006°35'1 1.2
2015-Mar-24 01:21N 43°06' E 006°37'0 0.3
2015-Mar-24 00:33N 43°07' E 006°37'1 1.2
2015-Mar-23 23:33N 43°07' E 006°36'1 1.4
2015-Mar-23 22:33N 43°07' E 006°34'1 1.4
2015-Mar-23 21:33N 43°07' E 006°32'3 0.7
2015-Mar-23 17:15N 43°06' E 006°28'1 0.5
2015-Mar-23 15:24N 43°05' E 006°27'1 0.3
2015-Mar-23 10:32N 43°05' E 006°29'1 0.4
2015-Mar-23 08:31N 43°05' E 006°28'5 4.8
2015-Mar-23 07:34N 43°06' E 006°34'0 0.3
2015-Mar-23 06:34N 43°06' E 006°34'2 1.4
2015-Mar-23 05:24N 43°07' E 006°33'1 0.7
2015-Mar-23 04:33N 43°07' E 006°32'1 1.4
2015-Mar-23 03:31N 43°06' E 006°34'1 1.5
2015-Mar-23 02:34N 43°06' E 006°36'2 1.6
2015-Mar-23 01:34N 43°06' E 006°38'1 0.8
2015-Mar-23 00:33N 43°06' E 006°37'1 0.7
2015-Mar-22 23:22N 43°06' E 006°36'1 0.9
2015-Mar-22 22:34N 43°06' E 006°35'1 1.3
2015-Mar-22 21:26N 43°07' E 006°33'1 1.0
2015-Mar-22 20:29N 43°07' E 006°32'3 2.1
2015-Mar-22 19:03N 43°08' E 006°35'1 2.3
2015-Mar-22 18:33N 43°08' E 006°37'1 0.8
2015-Mar-22 17:31N 43°08' E 006°38'1 1.0
2015-Mar-22 16:05N 43°09' E 006°36'1 0.6
2015-Mar-22 15:06N 43°09' E 006°35'0 0.5
2015-Mar-22 14:24N 43°09' E 006°35'2 1.3
2015-Mar-22 13:10N 43°08' E 006°33'1 1.2
2015-Mar-22 12:30N 43°08' E 006°32'1 1.3
2015-Mar-22 11:29N 43°07' E 006°31'0 0.2
2015-Mar-22 10:27N 43°07' E 006°31'0 0.4
2015-Mar-22 09:29N 43°07' E 006°31'0 0.4
2015-Mar-22 08:33N 43°07' E 006°31'46 1.2
2015-Mar-20 17:18N 43°01' E 005°28'10 0.5
2015-Mar-19 21:09N 43°07' E 005°39'2 1.7
2015-Mar-19 20:06N 43°07' E 005°37'1 1.5
2015-Mar-19 19:28N 43°07' E 005°35'2 1.8
2015-Mar-19 18:12N 43°08' E 005°38'1 1.8
2015-Mar-19 17:31N 43°09' E 005°39'12 2.8
2015-Mar-19 13:18N 43°00' E 005°29'0 0.0
2015-Mar-19 12:28N 43°00' E 005°29'0 0.1
2015-Mar-19 11:12N 43°00' E 005°29'0 0.1
2015-Mar-19 10:13N 43°00' E 005°29'0 0.4
2015-Mar-19 09:11N 43°00' E 005°28'0 0.3
2015-Mar-19 08:33N 43°00' E 005°28'0 0.2
2015-Mar-19 07:33N 43°00' E 005°28'1 0.2
2015-Mar-19 02:31N 43°00' E 005°27'1 0.6
2015-Mar-19 01:29N 43°01' E 005°28'0 0.4
2015-Mar-19 00:26N 43°01' E 005°29'0 0.4
2015-Mar-18 23:28N 43°00' E 005°29'1 1.4
2015-Mar-18 22:33N 42°59' E 005°30'1 0.6
2015-Mar-18 21:31N 42°58' E 005°30'1 0.6
2015-Mar-18 20:33N 42°59' E 005°30'1 0.5
2015-Mar-18 19:31N 42°59' E 005°29'  

Dump ship's entire track history